createdAt,value
2023-02-16T00:01:52.654Z,99483.00
2023-02-16T00:04:25.111Z,99477.00
2023-02-16T00:06:52.783Z,99477.00
2023-02-16T00:09:20.368Z,99481.00
2023-02-16T00:12:06.312Z,99478.00
2023-02-16T00:14:37.468Z,99475.00
2023-02-16T00:17:04.994Z,99467.00
2023-02-16T00:19:37.152Z,99464.00
2023-02-16T00:22:04.794Z,99465.00
2023-02-16T00:24:31.975Z,99466.00
2023-02-16T00:26:59.775Z,99476.00
2023-02-16T00:29:30.759Z,99467.00
2023-02-16T00:31:59.141Z,99468.00
2023-02-16T00:34:41.155Z,99474.00
2023-02-16T00:37:12.427Z,99483.00
2023-02-16T00:39:40.393Z,99481.00
2023-02-16T00:42:11.936Z,99468.00
2023-02-16T00:44:55.135Z,99471.00
2023-02-16T00:47:25.801Z,99475.00
2023-02-16T00:49:54.297Z,99473.00
2023-02-16T00:52:42.754Z,99470.00
2023-02-16T00:55:10.921Z,99474.00
2023-02-16T00:57:42.604Z,99468.00
2023-02-16T01:00:12.625Z,99469.00
2023-02-16T01:02:39.260Z,99464.00
2023-02-16T01:05:06.129Z,99469.00
2023-02-16T01:07:51.209Z,99477.00
2023-02-16T01:10:39.688Z,99475.00
2023-02-16T01:13:06.770Z,99481.00
2023-02-16T01:15:34.186Z,99491.00
2023-02-16T01:18:01.238Z,99482.00
2023-02-16T01:20:28.332Z,99477.00
2023-02-16T01:22:54.977Z,99477.00
2023-02-16T01:25:21.682Z,99478.00
2023-02-16T01:27:48.519Z,99480.00
2023-02-16T01:30:19.155Z,99483.00
2023-02-16T01:32:51.371Z,99477.00
2023-02-16T01:35:23.572Z,99474.00
2023-02-16T01:37:50.778Z,99478.00
2023-02-16T01:40:37.225Z,99473.00
2023-02-16T01:43:24.787Z,99468.00
2023-02-16T01:46:00.431Z,99470.00
2023-02-16T01:48:29.229Z,99470.00
2023-02-16T01:51:04.138Z,99467.00
2023-02-16T01:53:42.763Z,99462.00
2023-02-16T01:56:24.569Z,99458.00
2023-02-16T01:58:55.437Z,99456.00
2023-02-16T02:01:30.993Z,99456.00
2023-02-16T02:04:17.879Z,99458.00
2023-02-16T02:06:46.235Z,99459.00
2023-02-16T02:09:42.687Z,99447.00
2023-02-16T02:12:21.280Z,99449.00
2023-02-16T02:14:49.152Z,99449.00
2023-02-16T02:17:18.894Z,99442.00
2023-02-16T02:19:54.500Z,99435.00
2023-02-16T02:23:01.098Z,99437.00
2023-02-16T02:25:53.591Z,99449.00
2023-02-16T02:28:54.228Z,99441.00
2023-02-16T02:31:32.907Z,99441.00
2023-02-16T02:34:18.458Z,99449.00
2023-02-16T02:36:44.992Z,99442.00
2023-02-16T02:39:30.624Z,99440.00
2023-02-16T02:42:10.735Z,99435.00
2023-02-16T02:45:04.406Z,99435.00
2023-02-16T02:47:44.059Z,99433.00
2023-02-16T02:50:32.109Z,99434.00
2023-02-16T02:53:03.445Z,99426.00
2023-02-16T02:55:52.518Z,99431.00
2023-02-16T02:58:40.692Z,99418.00
2023-02-16T03:01:09.309Z,99421.00
2023-02-16T03:03:42.129Z,99419.00
2023-02-16T03:06:17.636Z,99415.00
2023-02-16T03:08:47.983Z,99423.00
2023-02-16T03:11:40.211Z,99431.00
2023-02-16T03:14:22.295Z,99419.00
2023-02-16T03:17:14.843Z,99428.00
2023-02-16T03:20:02.351Z,99427.00
2023-02-16T03:22:48.410Z,99424.00
2023-02-16T03:25:34.416Z,99428.00
2023-02-16T03:28:21.261Z,99421.00
2023-02-16T03:30:50.274Z,99426.00
2023-02-16T03:33:17.256Z,99424.00
2023-02-16T03:35:45.207Z,99429.00
2023-02-16T03:38:12.096Z,99433.00
2023-02-16T03:40:40.943Z,99426.00
2023-02-16T03:43:08.636Z,99423.00
2023-02-16T03:45:41.966Z,99435.00
2023-02-16T03:48:09.051Z,99433.00
2023-02-16T03:50:35.581Z,99432.00
2023-02-16T03:53:08.266Z,99440.00
2023-02-16T03:55:45.886Z,99435.00
2023-02-16T03:58:19.191Z,99435.00
2023-02-16T04:00:45.760Z,99431.00
2023-02-16T04:03:13.001Z,99444.00
2023-02-16T04:05:39.734Z,99437.00
2023-02-16T04:08:06.722Z,99441.00
2023-02-16T04:10:33.315Z,99433.00
2023-02-16T04:12:59.902Z,99432.00
2023-02-16T04:15:28.297Z,99432.00
2023-02-16T04:17:55.218Z,99432.00
2023-02-16T04:20:24.844Z,99437.00
2023-02-16T04:22:51.876Z,99427.00
2023-02-16T04:25:18.887Z,99423.00
2023-02-16T04:27:46.131Z,99418.00
2023-02-16T04:30:15.686Z,99417.00
2023-02-16T04:32:42.258Z,99424.00
2023-02-16T04:35:09.623Z,99418.00
2023-02-16T04:37:36.245Z,99421.00
2023-02-16T04:40:04.217Z,99426.00
2023-02-16T04:42:30.777Z,99412.00
2023-02-16T04:44:57.245Z,99421.00
2023-02-16T04:47:25.888Z,99405.00
2023-02-16T04:49:53.333Z,99421.00
2023-02-16T04:52:20.288Z,99406.00
2023-02-16T04:54:46.835Z,99418.00
2023-02-16T04:57:13.336Z,99425.00
2023-02-16T04:59:39.837Z,99419.00
2023-02-16T05:02:06.525Z,99421.00
2023-02-16T05:04:33.340Z,99428.00
2023-02-16T05:06:59.907Z,99427.00
2023-02-16T05:09:26.405Z,99425.00
2023-02-16T05:12:11.195Z,99423.00
2023-02-16T05:14:44.768Z,99429.00
2023-02-16T05:17:18.712Z,99425.00
2023-02-16T05:19:47.581Z,99425.00
2023-02-16T05:22:15.061Z,99423.00
2023-02-16T05:24:42.570Z,99420.00
2023-02-16T05:27:13.222Z,99427.00
2023-02-16T05:29:39.755Z,99420.00
2023-02-16T05:32:06.519Z,99425.00
2023-02-16T05:34:33.045Z,99427.00
2023-02-16T05:36:59.496Z,99424.00
2023-02-16T05:39:25.962Z,99425.00
2023-02-16T05:41:52.477Z,99432.00
2023-02-16T05:44:19.028Z,99435.00
2023-02-16T05:46:46.649Z,99428.00
2023-02-16T05:49:14.609Z,99430.00
2023-02-16T05:51:41.554Z,99430.00
2023-02-16T05:54:10.626Z,99444.00
2023-02-16T05:56:37.275Z,99437.00
2023-02-16T05:59:03.769Z,99446.00
2023-02-16T06:01:30.263Z,99449.00
2023-02-16T06:03:56.839Z,99454.00
2023-02-16T06:06:23.349Z,99453.00
2023-02-16T06:08:49.934Z,99444.00
2023-02-16T06:11:35.036Z,99448.00
2023-02-16T06:14:03.187Z,99455.00
2023-02-16T06:16:31.324Z,99444.00
2023-02-16T06:18:58.791Z,99461.00
2023-02-16T06:21:25.528Z,99463.00
2023-02-16T06:23:52.389Z,99458.00
2023-02-16T06:26:19.809Z,99454.00
2023-02-16T06:28:46.353Z,99465.00
2023-02-16T06:31:13.089Z,99461.00
2023-02-16T06:33:39.787Z,99462.00
2023-02-16T06:36:06.900Z,99465.00
2023-02-16T06:38:33.374Z,99458.00
2023-02-16T06:40:59.888Z,99461.00
2023-02-16T06:43:28.793Z,99458.00
2023-02-16T06:45:56.465Z,99458.00
2023-02-16T06:48:23.019Z,99457.00
2023-02-16T06:50:52.300Z,99456.00
2023-02-16T06:53:20.317Z,99451.00
2023-02-16T06:55:47.189Z,99453.00
2023-02-16T06:58:13.754Z,99463.00
2023-02-16T07:00:40.318Z,99454.00
2023-02-16T07:03:06.846Z,99458.00
2023-02-16T07:05:33.351Z,99454.00
2023-02-16T07:07:59.837Z,99462.00
2023-02-16T07:10:28.061Z,99475.00
2023-02-16T07:12:57.205Z,99459.00
2023-02-16T07:15:23.671Z,99463.00
2023-02-16T07:17:50.172Z,99474.00
2023-02-16T07:20:18.000Z,99474.00
2023-02-16T07:22:44.541Z,99481.00
2023-02-16T07:25:11.048Z,99482.00
2023-02-16T07:27:37.562Z,99474.00
2023-02-16T07:30:04.232Z,99485.00
2023-02-16T07:32:30.848Z,99489.00
2023-02-16T07:34:57.448Z,99488.00
2023-02-16T07:37:24.381Z,99489.00
2023-02-16T07:39:50.897Z,99496.00
2023-02-16T07:42:17.427Z,99490.00
2023-02-16T07:44:47.159Z,99494.00
2023-02-16T07:47:14.467Z,99504.00
2023-02-16T07:49:41.293Z,99504.00
2023-02-16T07:52:07.842Z,99512.00
2023-02-16T07:54:34.384Z,99504.00
2023-02-16T07:57:00.847Z,99510.00
2023-02-16T07:59:27.384Z,99506.00
2023-02-16T08:01:53.953Z,99499.00
2023-02-16T08:04:20.689Z,99504.00
2023-02-16T08:06:48.731Z,99495.00
2023-02-16T08:09:18.361Z,99491.00
2023-02-16T08:11:47.978Z,99496.00
2023-02-16T08:14:15.908Z,99493.00
2023-02-16T08:16:42.673Z,99496.00
2023-02-16T08:19:11.100Z,99488.00
2023-02-16T08:21:37.622Z,99487.00
2023-02-16T08:24:08.575Z,99490.00
2023-02-16T08:26:40.053Z,99494.00
2023-02-16T08:29:13.146Z,99499.00
2023-02-16T08:31:39.798Z,99498.00
2023-02-16T08:34:06.886Z,99510.00
2023-02-16T08:36:38.623Z,99506.00
2023-02-16T08:39:08.001Z,99500.00
2023-02-16T08:41:36.211Z,99509.00
2023-02-16T08:44:04.160Z,99506.00
2023-02-16T08:46:32.385Z,99518.00
2023-02-16T08:49:00.275Z,99517.00
2023-02-16T08:51:29.007Z,99520.00
2023-02-16T08:53:58.518Z,99520.00
2023-02-16T08:56:25.654Z,99525.00
2023-02-16T08:58:52.247Z,99520.00
2023-02-16T09:01:19.335Z,99526.00
2023-02-16T09:03:46.669Z,99531.00
2023-02-16T09:06:15.471Z,99526.00
2023-02-16T09:08:42.265Z,99528.00
2023-02-16T09:11:12.840Z,99532.00
2023-02-16T09:13:41.076Z,99525.00
2023-02-16T09:16:13.401Z,99530.00
2023-02-16T09:18:40.219Z,99531.00
2023-02-16T09:21:12.590Z,99534.00
2023-02-16T09:23:41.052Z,99519.00
2023-02-16T09:26:09.867Z,99504.00
2023-02-16T09:28:38.256Z,99520.00
2023-02-16T09:31:25.857Z,99525.00
2023-02-16T09:33:58.269Z,99528.00
2023-02-16T09:36:24.869Z,99520.00
2023-02-16T09:38:51.503Z,99518.00
2023-02-16T09:41:31.898Z,99521.00
2023-02-16T09:44:26.273Z,99518.00
2023-02-16T09:46:56.147Z,99523.00
2023-02-16T09:49:25.463Z,99512.00
2023-02-16T09:52:36.029Z,99516.00
2023-02-16T09:55:11.697Z,99516.00
2023-02-16T09:57:41.854Z,99513.00
2023-02-16T10:00:22.112Z,99512.00
2023-02-16T10:03:32.180Z,99512.00
2023-02-16T10:06:22.208Z,99508.00
2023-02-16T10:08:57.184Z,99512.00
2023-02-16T10:11:48.775Z,99503.00
2023-02-16T10:14:33.996Z,99507.00
2023-02-16T10:17:12.408Z,99509.00
2023-02-16T10:20:06.242Z,99508.00
2023-02-16T10:22:39.592Z,99508.00
2023-02-16T10:25:15.124Z,99510.00
2023-02-16T10:27:45.537Z,99509.00
2023-02-16T10:30:15.808Z,99520.00
2023-02-16T10:32:54.284Z,99523.00
2023-02-16T10:35:44.939Z,99520.00
2023-02-16T10:38:32.028Z,99506.00
2023-02-16T10:41:25.647Z,99510.00
2023-02-16T10:44:02.987Z,99504.00
2023-02-16T10:46:38.197Z,99509.00
2023-02-16T10:49:04.853Z,99496.00
2023-02-16T10:51:36.814Z,99496.00
2023-02-16T10:54:22.334Z,99496.00
2023-02-16T10:57:05.910Z,99494.00
2023-02-16T10:59:46.894Z,99493.00
2023-02-16T11:02:24.993Z,99490.00
2023-02-16T11:04:54.302Z,99496.00
2023-02-16T11:07:23.423Z,99490.00
2023-02-16T11:09:55.453Z,99490.00
2023-02-16T11:12:33.996Z,99496.00
2023-02-16T11:15:18.761Z,99485.00
2023-02-16T11:17:54.592Z,99489.00
2023-02-16T11:20:47.451Z,99478.00
2023-02-16T11:23:17.944Z,99479.00
2023-02-16T11:25:53.994Z,99480.00
2023-02-16T11:28:32.898Z,99472.00
2023-02-16T11:31:03.969Z,99484.00
2023-02-16T11:33:31.806Z,99488.00
2023-02-16T11:35:58.421Z,99488.00
2023-02-16T11:38:37.026Z,99487.00
2023-02-16T11:41:06.387Z,99489.00
2023-02-16T11:43:37.207Z,99483.00
2023-02-16T11:46:17.723Z,99494.00
2023-02-16T11:48:45.002Z,99478.00
2023-02-16T11:51:15.228Z,99473.00
2023-02-16T11:53:44.150Z,99479.00
2023-02-16T11:56:13.798Z,99466.00
2023-02-16T11:58:40.960Z,99476.00
2023-02-16T12:01:25.746Z,99473.00
2023-02-16T12:04:13.415Z,99472.00
2023-02-16T12:06:48.488Z,99469.00
2023-02-16T12:09:41.990Z,99471.00
2023-02-16T12:12:27.392Z,99464.00
2023-02-16T12:15:03.441Z,99461.00
2023-02-16T12:18:01.181Z,99453.00
2023-02-16T12:20:35.829Z,99458.00
2023-02-16T12:23:23.576Z,99451.00
2023-02-16T12:26:26.665Z,99449.00
2023-02-16T12:29:12.058Z,99453.00
2023-02-16T12:32:02.801Z,99451.00
2023-02-16T12:35:14.464Z,99449.00
2023-02-16T12:37:49.736Z,99444.00
2023-02-16T12:40:47.102Z,99438.00
2023-02-16T12:43:26.477Z,99443.00
2023-02-16T12:45:57.734Z,99436.00
2023-02-16T12:48:53.921Z,99428.00
2023-02-16T12:51:32.590Z,99428.00
2023-02-16T12:54:22.496Z,99428.00
2023-02-16T12:56:59.158Z,99429.00
2023-02-16T12:59:47.095Z,99421.00
2023-02-16T13:02:21.623Z,99424.00
2023-02-16T13:04:59.711Z,99429.00
2023-02-16T13:07:32.631Z,99418.00
2023-02-16T13:10:17.562Z,99424.00
2023-02-16T13:12:53.908Z,99418.00
2023-02-16T13:15:34.079Z,99420.00
2023-02-16T13:18:11.306Z,99414.00
2023-02-16T13:20:42.674Z,99413.00
2023-02-16T13:23:21.822Z,99411.00
2023-02-16T13:26:10.966Z,99405.00
2023-02-16T13:29:23.173Z,99411.00
2023-02-16T13:35:21.780Z,99402.00
2023-02-16T13:38:09.920Z,99400.00
2023-02-16T13:40:45.109Z,99390.00
2023-02-16T13:43:39.778Z,99391.00
2023-02-16T13:46:36.512Z,99394.00
2023-02-16T13:49:03.920Z,99390.00
2023-02-16T13:51:43.477Z,99384.00
2023-02-16T13:54:44.765Z,99377.00
2023-02-16T13:57:34.777Z,99379.00
2023-02-16T14:00:05.698Z,99380.00
2023-02-16T14:03:00.246Z,99368.00
2023-02-16T14:05:31.104Z,99370.00
2023-02-16T14:08:18.024Z,99361.00
2023-02-16T14:10:53.764Z,99373.00
2023-02-16T14:13:26.343Z,99358.00
2023-02-16T14:15:55.913Z,99355.00
2023-02-16T14:18:36.014Z,99355.00
2023-02-16T14:21:04.939Z,99361.00
2023-02-16T14:23:36.982Z,99356.00
2023-02-16T14:26:05.637Z,99355.00
2023-02-16T14:28:32.312Z,99351.00
2023-02-16T14:31:03.300Z,99359.00
2023-02-16T14:33:44.119Z,99359.00
2023-02-16T14:36:26.146Z,99366.00
2023-02-16T14:38:55.371Z,99363.00
2023-02-16T14:41:34.389Z,99359.00
2023-02-16T14:44:06.715Z,99373.00
2023-02-16T14:46:51.895Z,99367.00
2023-02-16T14:49:49.413Z,99366.00
2023-02-16T14:52:49.362Z,99369.00
2023-02-16T14:55:33.780Z,99362.00
2023-02-16T14:58:23.662Z,99367.00
2023-02-16T15:01:02.540Z,99372.00
2023-02-16T15:03:41.445Z,99376.00
2023-02-16T15:06:17.687Z,99373.00
2023-02-16T15:08:48.951Z,99380.00
2023-02-16T15:11:32.798Z,99384.00
2023-02-16T15:14:05.616Z,99385.00
2023-02-16T15:16:33.543Z,99382.00
2023-02-16T15:19:07.554Z,99377.00
2023-02-16T15:21:34.374Z,99374.00
2023-02-16T15:24:01.965Z,99380.00
2023-02-16T15:26:35.492Z,99383.00
2023-02-16T15:29:22.146Z,99379.00
2023-02-16T15:31:49.305Z,99377.00
2023-02-16T15:34:35.657Z,99385.00
2023-02-16T15:37:19.062Z,99375.00
2023-02-16T15:40:03.021Z,99370.00
2023-02-16T15:42:34.142Z,99377.00
2023-02-16T15:45:00.679Z,99373.00
2023-02-16T15:47:27.491Z,99365.00
2023-02-16T15:49:54.586Z,99370.00
2023-02-16T15:52:31.905Z,99367.00
2023-02-16T15:55:01.838Z,99378.00
2023-02-16T15:57:32.048Z,99364.00
2023-02-16T16:00:03.097Z,99367.00
2023-02-16T16:02:43.726Z,99364.00
2023-02-16T16:05:23.709Z,99359.00
2023-02-16T16:07:52.844Z,99358.00
2023-02-16T16:10:27.106Z,99359.00
2023-02-16T16:13:06.277Z,99360.00
2023-02-16T16:15:39.899Z,99350.00
2023-02-16T16:18:06.743Z,99353.00
2023-02-16T16:20:38.396Z,99359.00
2023-02-16T16:23:14.144Z,99355.00
2023-02-16T16:25:46.515Z,99348.00
2023-02-16T16:28:28.116Z,99358.00
2023-02-16T16:31:16.113Z,99348.00
2023-02-16T16:33:58.923Z,99357.00
2023-02-16T16:36:28.406Z,99353.00
2023-02-16T16:39:16.900Z,99357.00
2023-02-16T16:41:46.937Z,99358.00
2023-02-16T16:44:48.158Z,99355.00
2023-02-16T16:47:28.668Z,99354.00
2023-02-16T16:50:13.024Z,99346.00
2023-02-16T16:52:43.701Z,99348.00
2023-02-16T16:55:19.413Z,99357.00
2023-02-16T16:57:46.755Z,99359.00
2023-02-16T17:00:14.080Z,99353.00
2023-02-16T17:02:40.554Z,99365.00
2023-02-16T17:05:07.620Z,99364.00
2023-02-16T17:07:34.284Z,99364.00
2023-02-16T17:10:01.208Z,99365.00
2023-02-16T17:12:28.414Z,99370.00
2023-02-16T17:14:55.922Z,99365.00
2023-02-16T17:17:22.783Z,99364.00
2023-02-16T17:19:49.430Z,99371.00
2023-02-16T17:22:17.915Z,99360.00
2023-02-16T17:24:44.719Z,99363.00
2023-02-16T17:27:11.355Z,99361.00
2023-02-16T17:29:37.931Z,99358.00
2023-02-16T17:32:05.278Z,99359.00
2023-02-16T17:34:31.941Z,99356.00
2023-02-16T17:37:00.801Z,99358.00
2023-02-16T17:39:27.397Z,99367.00
2023-02-16T17:41:54.126Z,99362.00
2023-02-16T17:44:20.645Z,99361.00
2023-02-16T17:46:47.427Z,99360.00
2023-02-16T17:49:14.627Z,99364.00
2023-02-16T17:51:41.553Z,99363.00
2023-02-16T17:54:11.461Z,99358.00
2023-02-16T17:56:41.795Z,99356.00
2023-02-16T17:59:10.163Z,99361.00
2023-02-16T18:01:37.631Z,99356.00
2023-02-16T18:04:04.312Z,99357.00
2023-02-16T18:06:31.654Z,99360.00
2023-02-16T18:08:58.338Z,99360.00
2023-02-16T18:11:24.805Z,99355.00
2023-02-16T18:13:51.828Z,99350.00
2023-02-16T18:16:21.734Z,99345.00
2023-02-16T18:18:48.279Z,99341.00
2023-02-16T18:21:14.789Z,99339.00
2023-02-16T18:23:42.083Z,99344.00
2023-02-16T18:26:08.935Z,99336.00
2023-02-16T18:28:35.701Z,99339.00
2023-02-16T18:31:06.531Z,99328.00
2023-02-16T18:33:34.746Z,99336.00
2023-02-16T18:36:02.120Z,99335.00
2023-02-16T18:38:28.684Z,99336.00
2023-02-16T18:40:55.728Z,99332.00
2023-02-16T18:43:22.791Z,99334.00
2023-02-16T18:45:50.018Z,99343.00
2023-02-16T18:48:16.711Z,99330.00
2023-02-16T18:50:43.271Z,99335.00
2023-02-16T18:53:09.785Z,99337.00
2023-02-16T18:55:36.250Z,99327.00
2023-02-16T18:58:07.413Z,99334.00
2023-02-16T19:00:34.781Z,99341.00
2023-02-16T19:03:01.509Z,99340.00
2023-02-16T19:05:28.157Z,99344.00
2023-02-16T19:07:54.682Z,99352.00
2023-02-16T19:10:21.280Z,99360.00
2023-02-16T19:12:47.841Z,99360.00
2023-02-16T19:15:14.320Z,99357.00
2023-02-16T19:17:40.943Z,99358.00
2023-02-16T19:20:11.562Z,99354.00
2023-02-16T19:22:38.161Z,99355.00
2023-02-16T19:25:06.226Z,99357.00
2023-02-16T19:27:33.000Z,99362.00
2023-02-16T19:29:59.531Z,99366.00
2023-02-16T19:32:26.042Z,99366.00
2023-02-16T19:34:52.608Z,99369.00
2023-02-16T19:37:19.177Z,99361.00
2023-02-16T19:39:45.801Z,99365.00
2023-02-16T19:42:12.349Z,99359.00
2023-02-16T19:44:40.244Z,99356.00
2023-02-16T19:47:07.169Z,99361.00
2023-02-16T19:49:36.357Z,99360.00
2023-02-16T19:52:04.097Z,99369.00
2023-02-16T19:54:34.683Z,99375.00
2023-02-16T19:57:02.295Z,99367.00
2023-02-16T19:59:28.785Z,99369.00
2023-02-16T20:01:55.467Z,99365.00
2023-02-16T20:04:21.981Z,99365.00
2023-02-16T20:06:49.099Z,99367.00
2023-02-16T20:09:17.873Z,99371.00
2023-02-16T20:11:44.567Z,99369.00
2023-02-16T20:14:11.864Z,99367.00
2023-02-16T20:16:39.495Z,99375.00
2023-02-16T20:19:06.326Z,99362.00
2023-02-16T20:21:33.511Z,99361.00
2023-02-16T20:24:02.794Z,99371.00
2023-02-16T20:26:34.353Z,99362.00
2023-02-16T20:29:01.478Z,99351.00
2023-02-16T20:31:35.399Z,99347.00
2023-02-16T20:34:01.906Z,99345.00
2023-02-16T20:36:28.521Z,99342.00
2023-02-16T20:38:55.231Z,99342.00
2023-02-16T20:41:21.879Z,99349.00
2023-02-16T20:43:48.746Z,99343.00
2023-02-16T20:46:16.943Z,99346.00
2023-02-16T20:48:44.568Z,99336.00
2023-02-16T20:51:12.830Z,99332.00
2023-02-16T20:53:39.882Z,99343.00
2023-02-16T20:56:21.334Z,99345.00
2023-02-16T20:58:49.774Z,99350.00
2023-02-16T21:01:37.576Z,99338.00
2023-02-16T21:04:05.866Z,99343.00
2023-02-16T21:06:33.106Z,99345.00
2023-02-16T21:08:59.653Z,99340.00
2023-02-16T21:11:26.412Z,99340.00
2023-02-16T21:13:53.365Z,99346.00
2023-02-16T21:16:20.890Z,99336.00
2023-02-16T21:18:47.405Z,99339.00
2023-02-16T21:21:15.704Z,99338.00
2023-02-16T21:23:44.331Z,99337.00
2023-02-16T21:26:11.529Z,99338.00
2023-02-16T21:28:38.380Z,99332.00
2023-02-16T21:31:07.708Z,99345.00
2023-02-16T21:33:34.368Z,99343.00
2023-02-16T21:36:13.413Z,99331.00
2023-02-16T21:38:41.870Z,99334.00
2023-02-16T21:41:30.141Z,99341.00
2023-02-16T21:44:07.589Z,99338.00
2023-02-16T21:46:42.348Z,99335.00
2023-02-16T21:49:19.700Z,99327.00
2023-02-16T21:51:47.482Z,99332.00
2023-02-16T21:54:17.123Z,99325.00
2023-02-16T21:56:48.204Z,99320.00
2023-02-16T21:59:16.686Z,99317.00
2023-02-16T22:01:50.920Z,99316.00
2023-02-16T22:04:21.628Z,99318.00
2023-02-16T22:06:49.511Z,99324.00
2023-02-16T22:09:22.076Z,99322.00
2023-02-16T22:11:49.554Z,99328.00
2023-02-16T22:14:16.464Z,99327.00
2023-02-16T22:16:45.378Z,99329.00
2023-02-16T22:19:14.226Z,99322.00
2023-02-16T22:21:42.503Z,99313.00
2023-02-16T22:24:11.833Z,99311.00
2023-02-16T22:26:38.340Z,99318.00
2023-02-16T22:29:07.475Z,99327.00
2023-02-16T22:31:35.379Z,99318.00
2023-02-16T22:34:07.164Z,99312.00
2023-02-16T22:36:34.262Z,99324.00
2023-02-16T22:39:00.792Z,99313.00
2023-02-16T22:41:27.330Z,99316.00
2023-02-16T22:43:55.235Z,99308.00
2023-02-16T22:46:23.079Z,99307.00
2023-02-16T22:48:49.684Z,99307.00
2023-02-16T22:51:18.162Z,99306.00
2023-02-16T22:53:45.238Z,99312.00
2023-02-16T22:56:14.191Z,99306.00
2023-02-16T22:58:40.987Z,99307.00
2023-02-16T23:01:15.962Z,99298.00
2023-02-16T23:03:42.923Z,99297.00
2023-02-16T23:06:34.176Z,99313.00
2023-02-16T23:09:03.962Z,99310.00
2023-02-16T23:11:31.470Z,99314.00
2023-02-16T23:13:57.946Z,99320.00
2023-02-16T23:16:26.334Z,99315.00
2023-02-16T23:18:55.502Z,99319.00
2023-02-16T23:21:27.039Z,99316.00
2023-02-16T23:23:54.719Z,99323.00
2023-02-16T23:26:23.332Z,99318.00
2023-02-16T23:28:52.273Z,99316.00
2023-02-16T23:31:19.172Z,99324.00
2023-02-16T23:33:45.809Z,99318.00
2023-02-16T23:36:12.329Z,99322.00
2023-02-16T23:38:38.906Z,99312.00
2023-02-16T23:41:08.321Z,99312.00
2023-02-16T23:43:35.209Z,99310.00
2023-02-16T23:46:02.760Z,99304.00
2023-02-16T23:48:30.171Z,99308.00
2023-02-16T23:50:57.278Z,99309.00
2023-02-16T23:53:25.629Z,99306.00
2023-02-16T23:56:11.788Z,99305.00
2023-02-16T23:58:42.236Z,99300.00
